Аэропорт: Аулие-Ата. Тараз

ICAO: UADD

METAR:
2019-09-21 16:00:00
UADD 211600Z 21005MPS 9999 NSC 22/05 Q1010 R13/0///65 NOSIG RMK QFE701/0935
METAR:
2019-09-21 14:00:00
TAF UADD 211400Z 2115/2124 04003G08MPS 9999 NSC